Time;durP1;ratioP1;P1;durP2;ratioP2;P2;SDS_P1;SDS_P2;PMS_P1;PMS_P2;Temp;Humidity;BMP_temperature;BMP_pressure;BME280_temperature;BME280_humidity;BME280_pressure;Samples;Min_cycle;Max_cycle;Signal;HPM_P1;HPM_P2
2021/01/26 00:01:20;;;;;;;14.32;7.68;;;-0.80;99.90;;;;;;5017094;28;20033;-66
2021/01/26 00:03:46;;;;;;;14.93;7.63;;;-0.80;99.90;;;;;;5017011;28;20061;-66
2021/01/26 00:06:12;;;;;;;16.15;7.38;;;-0.80;99.90;;;;;;5016346;28;20132;-65
2021/01/26 00:08:39;;;;;;;16.50;7.22;;;-0.70;99.90;;;;;;5016163;28;20045;-66
2021/01/26 00:11:06;;;;;;;16.33;7.28;;;-0.70;99.90;;;;;;5014883;28;20772;-66
2021/01/26 00:13:32;;;;;;;11.18;6.75;;;-0.80;99.90;;;;;;5013489;28;20043;-66
2021/01/26 00:15:58;;;;;;;16.55;7.40;;;-0.80;99.90;;;;;;5010154;28;20038;-65
2021/01/26 00:18:24;;;;;;;17.48;7.78;;;-0.80;99.90;;;;;;5018977;28;20435;-65
2021/01/26 00:20:50;;;;;;;16.65;7.70;;;-0.80;99.90;;;;;;5016838;28;20556;-67
2021/01/26 00:23:17;;;;;;;14.95;7.68;;;-0.90;99.90;;;;;;5014761;28;20563;-66
2021/01/26 00:25:43;;;;;;;12.48;6.30;;;-0.90;99.90;;;;;;5018061;28;20518;-65
2021/01/26 00:28:12;;;;;;;16.00;7.35;;;-1.00;99.90;;;;;;5015327;28;20034;-65
2021/01/26 00:30:40;;;;;;;15.38;6.95;;;-0.80;99.90;;;;;;5019056;28;20084;-66
2021/01/26 00:33:09;;;;;;;15.65;7.03;;;-1.00;99.90;;;;;;5014413;28;20117;-66
2021/01/26 00:35:35;;;;;;;12.20;6.38;;;-1.00;99.90;;;;;;5017747;28;20531;-66
2021/01/26 00:38:01;;;;;;;12.48;6.57;;;-1.10;99.90;;;;;;5017441;28;20071;-66
2021/01/26 00:40:28;;;;;;;12.88;6.45;;;-1.10;99.90;;;;;;5013362;28;20055;-66
2021/01/26 00:42:54;;;;;;;12.18;6.65;;;-1.10;99.90;;;;;;5015493;28;20108;-66
2021/01/26 00:45:22;;;;;;;12.23;6.60;;;-1.20;99.90;;;;;;5016937;28;20388;-66
2021/01/26 00:47:49;;;;;;;11.55;6.28;;;-1.30;99.90;;;;;;5015687;28;20564;-65
2021/01/26 00:50:15;;;;;;;16.00;8.80;;;-1.20;99.90;;;;;;5020270;28;20393;-66
2021/01/26 00:52:41;;;;;;;13.63;6.43;;;-1.30;99.90;;;;;;5015647;28;20825;-65
2021/01/26 00:55:08;;;;;;;13.43;6.72;;;-1.20;99.90;;;;;;5014906;28;20038;-66
2021/01/26 00:57:34;;;;;;;11.80;5.70;;;-1.40;99.90;;;;;;5016769;28;20793;-66
2021/01/26 01:00:00;;;;;;;13.68;6.05;;;-1.40;99.90;;;;;;5015256;28;20033;-66
2021/01/26 01:02:26;;;;;;;11.65;6.05;;;-1.50;99.90;;;;;;5017436;28;20037;-65
2021/01/26 01:04:52;;;;;;;13.55;6.30;;;-1.50;99.90;;;;;;5016005;28;20068;-66
2021/01/26 01:07:19;;;;;;;12.27;5.38;;;-1.50;99.90;;;;;;5015408;28;20569;-65
2021/01/26 01:09:47;;;;;;;11.90;6.38;;;-1.60;99.90;;;;;;5009518;28;20055;-67
2021/01/26 01:12:13;;;;;;;15.73;6.53;;;-1.60;99.90;;;;;;5017914;28;20519;-64
2021/01/26 01:14:40;;;;;;;11.35;5.70;;;-1.60;99.90;;;;;;5013285;28;20037;-65
2021/01/26 01:17:06;;;;;;;11.07;6.25;;;-1.60;99.90;;;;;;5016265;28;20033;-68
2021/01/26 01:19:32;;;;;;;9.77;5.60;;;-1.60;99.90;;;;;;5020131;28;20545;-66
2021/01/26 01:21:57;;;;;;;11.02;5.93;;;-1.60;99.90;;;;;;5017468;28;20067;-65
2021/01/26 01:24:23;;;;;;;10.27;5.28;;;-1.60;99.90;;;;;;5014632;28;20045;-66
2021/01/26 01:26:49;;;;;;;13.43;5.55;;;-1.70;99.90;;;;;;5015129;28;20433;-65
2021/01/26 01:29:15;;;;;;;13.57;5.90;;;-1.80;99.90;;;;;;5018154;28;20103;-65
2021/01/26 01:31:41;;;;;;;10.25;5.90;;;-1.70;99.90;;;;;;5014913;28;20033;-66
2021/01/26 01:34:07;;;;;;;13.20;5.53;;;-1.90;99.90;;;;;;5013829;28;20492;-65
2021/01/26 01:36:37;;;;;;;11.15;5.55;;;-1.90;99.90;;;;;;5016311;28;20654;-65
2021/01/26 01:39:05;;;;;;;11.07;5.10;;;-1.90;99.90;;;;;;5016407;28;20069;-65
2021/01/26 01:41:35;;;;;;;9.55;4.90;;;-1.90;99.90;;;;;;5013279;28;20033;-65
2021/01/26 01:44:01;;;;;;;13.05;5.25;;;-2.00;99.90;;;;;;5016190;28;20112;-65
2021/01/26 01:46:29;;;;;;;11.82;5.53;;;-2.00;99.90;;;;;;5016771;28;20029;-65
2021/01/26 01:49:01;;;;;;;12.15;5.80;;;-2.00;99.90;;;;;;5015428;28;20045;-65
2021/01/26 01:51:28;;;;;;;8.88;5.05;;;-1.90;99.90;;;;;;5013272;28;20753;-66
2021/01/26 01:54:06;;;;;;;13.40;5.63;;;-2.00;99.90;;;;;;5014361;28;20068;-65
2021/01/26 01:57:17;;;;;;;9.13;5.00;;;-2.10;99.90;;;;;;5014483;28;20029;-66
2021/01/26 01:59:48;;;;;;;11.27;5.30;;;-2.10;99.90;;;;;;5012673;28;20601;-64
2021/01/26 02:02:15;;;;;;;13.20;4.93;;;-2.10;99.90;;;;;;5013772;28;20052;-65
2021/01/26 02:04:41;;;;;;;12.73;5.18;;;-2.00;99.90;;;;;;5013094;28;20766;-65
2021/01/26 02:07:07;;;;;;;9.68;5.35;;;-2.10;99.90;;;;;;5011364;28;20331;-65
2021/01/26 02:09:36;;;;;;;8.20;4.60;;;-2.10;99.90;;;;;;5015234;28;20037;-65
2021/01/26 02:12:03;;;;;;;10.43;5.65;;;-2.10;99.90;;;;;;5016217;28;20025;-65
2021/01/26 02:14:32;;;;;;;10.85;4.88;;;-2.20;99.90;;;;;;5030847;28;20076;-65
2021/01/26 02:17:15;;;;;;;9.25;4.32;;;-2.20;99.90;;;;;;5014326;28;20034;-65
2021/01/26 02:20:12;;;;;;;14.00;7.38;;;-2.20;99.90;;;;;;5015038;28;20033;-65
2021/01/26 02:22:56;;;;;;;8.05;4.15;;;-2.20;99.90;;;;;;5013733;28;20029;-65
2021/01/26 02:26:12;;;;;;;8.20;4.55;;;-2.20;99.90;;;;;;5015981;28;20766;-65
2021/01/26 02:28:57;;;;;;;11.02;4.95;;;-2.20;99.90;;;;;;5010881;28;20512;-64
2021/01/26 02:31:46;;;;;;;10.75;4.95;;;-2.20;99.90;;;;;;5015860;28;20030;-64
2021/01/26 02:34:48;;;;;;;11.05;5.13;;;-2.20;99.90;;;;;;5023580;28;20076;-65
2021/01/26 02:37:52;;;;;;;9.13;4.50;;;-2.30;99.90;;;;;;5014997;28;20029;-64
2021/01/26 02:40:34;;;;;;;10.68;4.28;;;-2.30;99.90;;;;;;5014026;28;20094;-65
2021/01/26 02:42:59;;;;;;;9.30;4.68;;;-2.40;99.90;;;;;;5011548;28;20443;-64
2021/01/26 02:45:33;;;;;;;11.73;5.78;;;-2.40;99.90;;;;;;5016947;28;20028;-64
2021/01/26 02:47:59;;;;;;;10.80;6.32;;;-2.30;99.90;;;;;;5016293;28;20551;-64
2021/01/26 02:50:45;;;;;;;16.45;7.25;;;-2.40;99.90;;;;;;5014555;28;20136;-64
2021/01/26 02:53:37;;;;;;;12.93;5.63;;;-2.40;99.90;;;;;;5017710;28;20030;-64
2021/01/26 02:56:33;;;;;;;10.63;4.95;;;-2.30;99.90;;;;;;5016789;28;20104;-65
2021/01/26 02:59:05;;;;;;;9.35;4.80;;;-2.30;99.90;;;;;;5018913;28;20038;-64
2021/01/26 03:01:39;;;;;;;8.23;5.05;;;-2.40;99.90;;;;;;5017341;28;20045;-64
2021/01/26 03:04:11;;;;;;;14.48;5.25;;;-2.40;99.90;;;;;;5018979;28;20084;-64
2021/01/26 03:06:42;;;;;;;10.40;4.35;;;-2.40;99.90;;;;;;5019001;28;20472;-64
2021/01/26 03:09:28;;;;;;;11.93;5.07;;;-2.30;99.90;;;;;;5017604;28;20064;-64
2021/01/26 03:12:14;;;;;;;9.10;5.00;;;-2.30;99.90;;;;;;5018579;28;20029;-65
2021/01/26 03:15:05;;;;;;;9.05;4.85;;;-2.20;99.90;;;;;;5018371;28;20052;-64
2021/01/26 03:17:34;;;;;;;9.90;5.22;;;-2.10;99.90;;;;;;5018952;28;20022;-64
2021/01/26 03:20:21;;;;;;;9.27;4.55;;;-2.00;99.90;;;;;;5020376;28;20443;-65
2021/01/26 03:22:51;;;;;;;9.55;3.60;;;-1.80;99.90;;;;;;5034433;28;20559;-64
2021/01/26 03:25:20;;;;;;;7.13;2.83;;;-1.60;99.90;;;;;;5010857;28;20750;-65
2021/01/26 03:27:48;;;;;;;7.67;3.43;;;-1.10;99.90;;;;;;5019106;28;20088;-65
2021/01/26 03:30:20;;;;;;;11.48;3.47;;;-0.80;99.90;;;;;;5019290;28;20621;-64
2021/01/26 03:32:55;;;;;;;11.35;4.15;;;-0.70;99.90;;;;;;5017564;28;20041;-65
2021/01/26 03:35:21;;;;;;;7.70;4.00;;;-0.60;99.90;;;;;;5018017;28;20044;-64
2021/01/26 03:37:55;;;;;;;8.27;3.53;;;-0.50;99.90;;;;;;5017665;28;20026;-64
2021/01/26 03:40:21;;;;;;;7.88;2.97;;;-0.50;99.90;;;;;;5019035;28;20148;-65
2021/01/26 03:42:46;;;;;;;8.07;3.38;;;-0.40;99.90;;;;;;5017811;28;20571;-65
2021/01/26 03:45:13;;;;;;;7.00;2.58;;;-0.40;99.90;;;;;;5019149;28;20030;-64
2021/01/26 03:48:00;;;;;;;6.95;2.85;;;-0.40;99.90;;;;;;5018709;28;20054;-65
2021/01/26 03:50:51;;;;;;;8.57;2.70;;;-0.40;99.90;;;;;;5019054;28;20037;-65
2021/01/26 03:53:36;;;;;;;8.18;2.90;;;-0.50;99.90;;;;;;5013356;28;20041;-65
2021/01/26 03:56:20;;;;;;;5.90;2.50;;;-0.50;99.90;;;;;;5015768;28;20041;-64
2021/01/26 03:59:14;;;;;;;6.70;2.83;;;-0.40;99.90;;;;;;5018016;28;20036;-65
2021/01/26 04:01:43;;;;;;;8.77;2.80;;;-0.40;99.90;;;;;;5018117;28;20065;-65
2021/01/26 04:04:34;;;;;;;4.43;2.60;;;-0.40;99.90;;;;;;5015346;28;20084;-65
2021/01/26 04:07:04;;;;;;;8.02;3.08;;;-0.40;99.90;;;;;;5016995;28;20038;-65
2021/01/26 04:09:43;;;;;;;7.90;2.95;;;-0.40;99.90;;;;;;5017877;28;20179;-65
2021/01/26 04:12:22;;;;;;;8.23;3.03;;;-0.40;99.90;;;;;;5016532;28;20839;-65
2021/01/26 04:15:14;;;;;;;5.90;2.42;;;-0.30;99.90;;;;;;5013398;28;20382;-65
2021/01/26 04:17:44;;;;;;;5.85;3.13;;;-0.30;99.90;;;;;;5018411;28;20103;-65
2021/01/26 04:20:24;;;;;;;5.10;2.70;;;-0.30;99.90;;;;;;5017152;28;20033;-65
2021/01/26 04:22:58;;;;;;;6.13;2.63;;;-0.30;99.90;;;;;;5018175;28;20037;-64
2021/01/26 04:25:40;;;;;;;5.20;2.45;;;-0.40;99.90;;;;;;5015205;28;20176;-65
2021/01/26 04:28:12;;;;;;;7.05;2.47;;;-0.40;99.90;;;;;;5016488;28;20056;-65
2021/01/26 04:30:38;;;;;;;5.53;2.30;;;-0.50;99.90;;;;;;5018839;28;20057;-65
2021/01/26 04:33:10;;;;;;;7.70;2.17;;;-0.60;99.90;;;;;;5016126;28;20034;-65
2021/01/26 04:35:37;;;;;;;5.53;2.55;;;-0.70;99.90;;;;;;5015382;28;20108;-65
2021/01/26 04:38:04;;;;;;;4.95;2.38;;;-0.80;99.90;;;;;;5013616;28;20168;-65
2021/01/26 04:40:31;;;;;;;4.70;2.33;;;-0.90;99.90;;;;;;5014358;28;20037;-64
2021/01/26 04:43:07;;;;;;;4.75;2.20;;;-0.90;99.90;;;;;;5015304;28;20029;-65
2021/01/26 04:45:42;;;;;;;4.65;2.40;;;-0.90;99.90;;;;;;5017868;28;20376;-65
2021/01/26 04:48:20;;;;;;;5.47;2.55;;;-0.90;99.90;;;;;;5017314;28;20077;-65
2021/01/26 04:50:58;;;;;;;6.20;2.40;;;-0.80;99.90;;;;;;5015417;28;20033;-65
2021/01/26 04:53:43;;;;;;;6.03;2.88;;;-0.90;99.90;;;;;;5015416;28;20116;-65
2021/01/26 04:56:50;;;;;;;6.18;2.63;;;-0.90;99.90;;;;;;5012806;28;20029;-65
2021/01/26 04:59:47;;;;;;;3.67;2.15;;;-0.90;99.90;;;;;;5017446;28;20044;-65
2021/01/26 05:02:28;;;;;;;7.13;3.45;;;-0.90;99.90;;;;;;5017280;28;20036;-65
2021/01/26 05:05:09;;;;;;;5.35;2.28;;;-1.00;99.90;;;;;;5013311;28;20029;-64
2021/01/26 05:07:49;;;;;;;10.98;2.72;;;-1.10;99.90;;;;;;5013629;28;20035;-65
2021/01/26 05:10:33;;;;;;;5.72;2.80;;;-1.20;99.90;;;;;;5015883;28;20037;-65
2021/01/26 05:13:05;;;;;;;6.32;2.33;;;-1.20;99.90;;;;;;5016102;28;20033;-64
2021/01/26 05:15:36;;;;;;;5.55;2.70;;;-1.30;99.90;;;;;;5018114;28;20670;-64
2021/01/26 05:18:11;;;;;;;4.13;2.20;;;-1.40;99.90;;;;;;5014295;28;20025;-64
2021/01/26 05:20:44;;;;;;;4.32;2.28;;;-1.40;99.90;;;;;;5017837;28;20033;-65
2021/01/26 05:23:21;;;;;;;5.25;2.65;;;-1.50;99.90;;;;;;5015226;28;20140;-65
2021/01/26 05:25:49;;;;;;;4.97;2.45;;;-1.50;99.90;;;;;;5014620;28;20027;-64
2021/01/26 05:28:18;;;;;;;7.93;3.13;;;-1.50;99.90;;;;;;5013047;28;20529;-65
2021/01/26 05:30:53;;;;;;;5.95;2.60;;;-1.70;99.90;;;;;;5014903;28;20045;-64
2021/01/26 05:33:19;;;;;;;6.18;2.80;;;-1.60;99.90;;;;;;5014575;28;20605;-65
2021/01/26 05:35:55;;;;;;;6.60;2.90;;;-1.70;99.90;;;;;;5010681;28;20444;-64
2021/01/26 05:38:22;;;;;;;10.30;2.70;;;-1.60;99.90;;;;;;5011301;28;20458;-63
2021/01/26 05:40:54;;;;;;;5.70;2.45;;;-1.70;99.90;;;;;;5008427;28;20030;-63
2021/01/26 05:43:28;;;;;;;6.35;2.83;;;-1.80;99.90;;;;;;5014013;28;20027;-64
2021/01/26 05:45:57;;;;;;;4.85;2.92;;;-1.80;99.90;;;;;;5013234;28;20452;-63
2021/01/26 05:48:25;;;;;;;6.40;2.30;;;-1.90;99.90;;;;;;5012491;28;20499;-63
2021/01/26 05:51:12;;;;;;;7.47;2.83;;;-1.90;99.90;;;;;;5013459;28;20933;-63
2021/01/26 05:53:38;;;;;;;4.35;2.35;;;-2.00;99.90;;;;;;5011584;28;20037;-63
2021/01/26 05:56:17;;;;;;;10.13;2.38;;;-2.00;99.90;;;;;;5013523;28;20087;-63
2021/01/26 05:58:46;;;;;;;7.45;3.15;;;-2.10;99.90;;;;;;5013811;28;20044;-63
2021/01/26 06:01:22;;;;;;;6.47;2.55;;;-2.10;99.90;;;;;;5014712;28;20142;-63
2021/01/26 06:04:05;;;;;;;8.98;2.72;;;-2.10;99.90;;;;;;5002990;28;20065;-63
2021/01/26 06:06:31;;;;;;;9.52;2.45;;;-2.20;99.90;;;;;;5005685;28;20025;-63
2021/01/26 06:08:58;;;;;;;4.90;2.33;;;-2.30;99.90;;;;;;5013157;28;20041;-63
2021/01/26 06:11:29;;;;;;;5.38;2.17;;;-2.30;99.90;;;;;;5007468;28;20826;-63
2021/01/26 06:14:16;;;;;;;5.18;1.85;;;-2.40;99.90;;;;;;5011897;28;20064;-63
2021/01/26 06:16:42;;;;;;;8.18;2.35;;;-2.50;99.90;;;;;;5010699;28;20030;-63
2021/01/26 06:19:13;;;;;;;5.78;2.03;;;-2.50;99.90;;;;;;5009958;28;20100;-63
2021/01/26 06:21:48;;;;;;;4.40;1.98;;;-2.60;99.90;;;;;;5013068;28;20037;-62
2021/01/26 06:24:22;;;;;;;5.55;2.00;;;-2.60;99.90;;;;;;5011813;28;20048;-63
2021/01/26 06:27:15;;;;;;;7.03;2.28;;;-2.60;99.90;;;;;;5018731;28;20361;-63
2021/01/26 06:30:08;;;;;;;8.30;2.03;;;-2.50;99.90;;;;;;5017129;28;20048;-63
2021/01/26 06:33:06;;;;;;;4.97;1.73;;;-2.50;99.90;;;;;;5019081;28;20030;-63
2021/01/26 06:35:38;;;;;;;9.85;1.98;;;-2.50;99.90;;;;;;5021814;28;21148;-64
2021/01/26 06:38:28;;;;;;;7.47;1.88;;;-2.40;99.90;;;;;;5017304;28;20029;-63
2021/01/26 06:41:34;;;;;;;10.00;1.65;;;-2.30;99.90;;;;;;5019647;28;20563;-62
2021/01/26 06:44:31;;;;;;;10.85;1.88;;;-2.20;99.90;;;;;;5020000;28;20234;-63
2021/01/26 06:47:28;;;;;;;4.00;1.50;;;-2.10;99.90;;;;;;5019854;28;20055;-63
2021/01/26 06:50:22;;;;;;;6.40;1.58;;;-2.00;99.90;;;;;;5019479;28;20132;-63
2021/01/26 06:53:21;;;;;;;7.22;1.50;;;-1.90;99.90;;;;;;5016712;28;20052;-63
2021/01/26 06:56:20;;;;;;;10.90;1.80;;;-1.80;99.90;;;;;;5019367;28;20041;-63
2021/01/26 06:59:24;;;;;;;6.57;2.70;;;-1.70;99.90;;;;;;5016700;28;20816;-63
2021/01/26 07:02:18;;;;;;;12.55;4.15;;;-1.60;99.90;;;;;;5020719;28;20029;-63
2021/01/26 07:05:21;;;;;;;6.45;1.65;;;-1.50;99.90;;;;;;5012667;28;20037;-62
2021/01/26 07:08:05;;;;;;;7.72;1.80;;;-1.50;99.90;;;;;;5013536;28;20488;-62
2021/01/26 07:10:45;;;;;;;8.38;1.73;;;-1.50;99.90;;;;;;5014826;28;20077;-63
2021/01/26 07:13:50;;;;;;;8.45;2.17;;;-1.40;99.90;;;;;;5016735;28;20555;-63
2021/01/26 07:16:41;;;;;;;5.35;1.80;;;-1.40;99.90;;;;;;5015038;28;20037;-63
2021/01/26 07:19:25;;;;;;;7.30;1.90;;;-1.30;99.90;;;;;;5019875;28;20039;-63
2021/01/26 07:22:16;;;;;;;5.53;1.45;;;-1.40;99.90;;;;;;5008249;28;20037;-62
2021/01/26 07:24:51;;;;;;;6.60;2.13;;;-1.30;99.90;;;;;;5019133;28;20029;-62
2021/01/26 07:27:58;;;;;;;9.93;2.45;;;-1.20;99.90;;;;;;5017741;28;20059;-63
2021/01/26 07:30:31;;;;;;;8.55;1.88;;;-1.10;99.90;;;;;;5016008;28;20049;-63
2021/01/26 07:33:06;;;;;;;6.10;2.33;;;-1.10;99.90;;;;;;5015517;28;20041;-63
2021/01/26 07:35:51;;;;;;;6.78;2.17;;;-1.10;99.90;;;;;;5017198;28;20030;-64
2021/01/26 07:38:35;;;;;;;5.75;1.52;;;-1.10;99.90;;;;;;5018054;28;20044;-63
2021/01/26 07:41:10;;;;;;;7.60;1.95;;;-1.10;99.90;;;;;;5018254;28;20037;-62
2021/01/26 07:43:46;;;;;;;7.63;1.95;;;-1.00;99.90;;;;;;5016348;28;20103;-62
2021/01/26 07:46:25;;;;;;;8.00;1.98;;;-1.00;99.90;;;;;;5018740;28;20033;-63
2021/01/26 07:49:23;;;;;;;4.95;1.95;;;-1.10;99.90;;;;;;5015818;28;20595;-62
2021/01/26 07:51:55;;;;;;;6.03;1.73;;;-1.20;99.90;;;;;;5014419;28;20401;-63
2021/01/26 07:55:00;;;;;;;5.88;1.85;;;-1.20;99.90;;;;;;5014297;28;20028;-62
2021/01/26 07:57:35;;;;;;;8.18;2.08;;;-1.20;99.90;;;;;;5016459;28;20036;-63
2021/01/26 08:00:04;;;;;;;6.15;2.50;;;-1.10;99.90;;;;;;5015690;28;20036;-62
2021/01/26 08:02:34;;;;;;;7.30;2.72;;;-1.10;99.90;;;;;;5016109;28;20043;-63
2021/01/26 08:05:07;;;;;;;;;;;-1.00;99.90;;;;;;5015129;28;20109;-62
2021/01/26 08:07:33;;;;;;;6.30;2.72;;;-1.00;99.90;;;;;;5015813;28;19913;-62
2021/01/26 08:10:02;;;;;;;6.63;1.90;;;-1.00;99.90;;;;;;5017448;28;20052;-63
2021/01/26 08:12:28;;;;;;;7.60;1.90;;;-1.00;99.90;;;;;;5016943;28;20435;-63
2021/01/26 08:14:57;;;;;;;6.63;1.73;;;-1.00;99.90;;;;;;5018564;28;20026;-62
2021/01/26 08:17:32;;;;;;;5.10;2.05;;;-0.90;99.90;;;;;;5016611;28;20029;-62
2021/01/26 08:20:06;;;;;;;4.63;2.00;;;-1.00;99.90;;;;;;5018515;28;20037;-62
2021/01/26 08:22:39;;;;;;;18.27;3.55;;;-1.00;99.90;;;;;;5017130;28;20021;-63
2021/01/26 08:25:22;;;;;;;7.60;2.55;;;-0.90;99.90;;;;;;5018986;28;20067;-62
2021/01/26 08:27:51;;;;;;;9.75;1.80;;;-0.80;99.90;;;;;;5018156;28;20045;-63
2021/01/26 08:30:46;;;;;;;4.97;2.17;;;-0.80;99.90;;;;;;5018631;28;20041;-63
2021/01/26 08:33:15;;;;;;;10.45;2.38;;;-0.70;99.90;;;;;;5017534;28;20489;-62
2021/01/26 08:35:44;;;;;;;12.27;2.60;;;-0.60;99.90;;;;;;5017364;28;20112;-62
2021/01/26 08:38:45;;;;;;;12.17;2.77;;;-0.60;99.90;;;;;;5018221;28;20037;-62
2021/01/26 08:41:11;;;;;;;7.75;2.30;;;-0.50;99.90;;;;;;5016866;28;20033;-62
2021/01/26 08:43:55;;;;;;;9.30;2.85;;;-0.40;99.90;;;;;;5016407;28;20021;-62
2021/01/26 08:46:42;;;;;;;7.60;3.33;;;-0.40;99.90;;;;;;5014639;28;20033;-62
2021/01/26 08:49:35;;;;;;;5.25;2.88;;;-0.20;99.90;;;;;;5016669;28;20041;-62
2021/01/26 08:52:27;;;;;;;19.33;5.28;;;-0.10;99.90;;;;;;5016542;28;20469;-63
2021/01/26 08:54:55;;;;;;;9.85;3.17;;;0.00;99.90;;;;;;5015936;28;20765;-62
2021/01/26 08:57:22;;;;;;;13.60;4.13;;;0.00;99.90;;;;;;5015227;28;20698;-64
2021/01/26 08:59:49;;;;;;;12.50;2.92;;;0.60;99.90;;;;;;5016668;28;20033;-63
2021/01/26 09:02:38;;;;;;;6.22;2.65;;;1.90;99.90;;;;;;5015030;28;20036;-63
2021/01/26 09:05:06;;;;;;;11.95;2.92;;;3.90;99.90;;;;;;5016006;28;20563;-63
2021/01/26 09:07:54;;;;;;;7.38;2.42;;;5.20;99.90;;;;;;5015810;28;20496;-63
2021/01/26 09:10:24;;;;;;;10.95;3.88;;;6.80;99.90;;;;;;5016330;28;20033;-64
2021/01/26 09:13:03;;;;;;;6.75;3.13;;;8.30;99.90;;;;;;5015578;28;20064;-63
2021/01/26 09:15:31;;;;;;;9.95;3.30;;;9.40;99.90;;;;;;5018424;28;20516;-63
2021/01/26 09:17:59;;;;;;;7.78;3.38;;;10.50;99.90;;;;;;5017853;28;20108;-64
2021/01/26 09:20:29;;;;;;;9.50;3.75;;;11.40;99.90;;;;;;5016806;28;20072;-64
2021/01/26 09:23:01;;;;;;;10.02;3.60;;;12.10;99.90;;;;;;5013555;28;20025;-65
2021/01/26 09:25:41;;;;;;;12.88;3.35;;;12.60;99.90;;;;;;5015989;28;20047;-64
2021/01/26 09:28:10;;;;;;;12.27;3.70;;;13.20;99.90;;;;;;5018281;28;20433;-63
2021/01/26 09:30:39;;;;;;;8.02;3.25;;;13.70;99.90;;;;;;5014659;28;20069;-62
2021/01/26 09:33:23;;;;;;;9.27;3.65;;;14.20;98.30;;;;;;5011993;28;20781;-63
2021/01/26 09:36:01;;;;;;;10.07;3.25;;;14.60;97.50;;;;;;5011329;28;20045;-62
2021/01/26 09:38:33;;;;;;;;;;;14.70;96.40;;;;;;5011302;28;20603;-63
2021/01/26 09:41:01;;;;;;;;;;;15.20;95.10;;;;;;5013798;28;19912;-63
2021/01/26 09:43:29;;;;;;;10.35;3.58;;;15.50;93.90;;;;;;5011529;28;19948;-62
2021/01/26 09:46:16;;;;;;;10.82;4.10;;;15.70;93.70;;;;;;5015227;28;20041;-63
2021/01/26 09:48:46;;;;;;;10.23;3.72;;;15.80;92.90;;;;;;5013405;28;20049;-63
2021/01/26 09:51:23;;;;;;;7.18;3.38;;;16.10;92.40;;;;;;5013864;28;20040;-63
2021/01/26 09:53:58;;;;;;;8.13;3.60;;;16.30;91.00;;;;;;5013884;28;20409;-63
2021/01/26 09:56:25;;;;;;;8.50;3.67;;;16.50;90.90;;;;;;5017243;28;20029;-63
2021/01/26 09:58:52;;;;;;;10.52;4.03;;;16.60;90.10;;;;;;5012678;28;20021;-63
2021/01/26 10:01:19;;;;;;;9.00;3.95;;;16.70;90.30;;;;;;5015218;28;20512;-63
2021/01/26 10:03:52;;;;;;;14.52;3.88;;;16.80;89.90;;;;;;5012223;28;20389;-62
2021/01/26 10:06:19;;;;;;;9.13;3.58;;;16.70;89.30;;;;;;5014600;28;20495;-63
2021/01/26 10:08:45;;;;;;;12.63;3.65;;;16.90;88.60;;;;;;5012233;28;20946;-63
2021/01/26 10:11:18;;;;;;;11.23;2.75;;;16.90;86.70;;;;;;5012916;28;20029;-63
2021/01/26 10:13:45;;;;;;;6.47;2.40;;;16.90;85.90;;;;;;5012857;28;20117;-63
2021/01/26 10:16:33;;;;;;;6.78;2.92;;;16.80;87.90;;;;;;5016389;28;20452;-62
2021/01/26 10:19:12;;;;;;;8.90;2.53;;;17.10;89.60;;;;;;5013274;28;20029;-63
2021/01/26 10:21:38;;;;;;;6.75;2.88;;;17.10;87.00;;;;;;5013301;28;20393;-63
2021/01/26 10:24:08;;;;;;;8.18;2.50;;;17.50;84.50;;;;;;5022503;28;20032;-63
2021/01/26 10:26:39;;;;;;;6.80;2.28;;;17.80;85.40;;;;;;5017973;28;20063;-63
2021/01/26 10:29:10;;;;;;;10.80;2.33;;;17.70;82.00;;;;;;5016660;28;20168;-63
2021/01/26 10:31:47;;;;;;;6.32;1.90;;;17.50;83.50;;;;;;5010979;28;20040;-63
2021/01/26 10:34:31;;;;;;;5.45;1.85;;;17.30;80.70;;;;;;5009270;28;20067;-63
2021/01/26 10:37:12;;;;;;;8.55;2.45;;;17.00;84.30;;;;;;5009635;28;20045;-63
2021/01/26 10:39:39;;;;;;;4.68;2.10;;;17.00;85.70;;;;;;5010781;28;20033;-63
2021/01/26 10:42:27;;;;;;;4.53;2.00;;;17.00;85.80;;;;;;5009056;28;20061;-64
2021/01/26 10:44:55;;;;;;;7.25;2.38;;;17.00;82.70;;;;;;5005406;28;20042;-63
2021/01/26 10:47:29;;;;;;;7.15;2.13;;;17.30;81.40;;;;;;5013413;28;20103;-64
2021/01/26 10:49:58;;;;;;;6.45;2.10;;;17.60;85.70;;;;;;5013589;28;20065;-64
2021/01/26 10:52:38;;;;;;;4.20;1.83;;;17.80;84.50;;;;;;5012877;28;20041;-63
2021/01/26 10:55:05;;;;;;;4.55;1.60;;;17.70;80.50;;;;;;5011736;28;20099;-64
2021/01/26 10:57:31;;;;;;;7.07;1.88;;;17.70;80.40;;;;;;5014335;28;20049;-64
2021/01/26 10:59:57;;;;;;;4.43;1.40;;;17.70;82.40;;;;;;5011166;28;20899;-63
2021/01/26 11:02:22;;;;;;;6.22;1.95;;;17.60;80.80;;;;;;5015480;28;20099;-63
2021/01/26 11:04:48;;;;;;;4.70;1.40;;;17.70;79.10;;;;;;5011330;28;20559;-64
2021/01/26 11:07:14;;;;;;;4.00;1.23;;;17.70;77.50;;;;;;5013236;28;20048;-64
2021/01/26 11:09:40;;;;;;;5.65;1.60;;;17.40;77.50;;;;;;5019415;28;20480;-64
2021/01/26 11:12:06;;;;;;;5.38;2.10;;;17.20;78.10;;;;;;5016293;28;20574;-64
2021/01/26 11:14:33;;;;;;;8.02;1.77;;;17.20;78.60;;;;;;5017822;28;20099;-64
2021/01/26 11:16:59;;;;;;;5.28;1.80;;;17.30;80.20;;;;;;5014948;28;20014;-64
2021/01/26 11:19:29;;;;;;;5.28;1.85;;;17.40;84.90;;;;;;5013422;28;20043;-64
2021/01/26 11:21:55;;;;;;;3.20;1.40;;;18.10;81.70;;;;;;5014056;28;20064;-65
2021/01/26 11:24:21;;;;;;;3.97;1.35;;;18.70;79.90;;;;;;5012886;28;20125;-64
2021/01/26 11:26:47;;;;;;;4.30;1.80;;;18.90;75.00;;;;;;5010286;28;20535;-65
2021/01/26 11:29:12;;;;;;;3.70;1.80;;;18.90;76.90;;;;;;5015568;28;20491;-65
2021/01/26 11:31:38;;;;;;;5.00;1.38;;;18.80;76.20;;;;;;5014092;28;20030;-65
2021/01/26 11:34:04;;;;;;;3.40;1.58;;;18.60;76.40;;;;;;5015187;28;20047;-65
2021/01/26 11:36:30;;;;;;;5.97;1.40;;;18.80;73.40;;;;;;5012970;28;20496;-65
2021/01/26 11:38:55;;;;;;;7.57;1.65;;;18.60;75.30;;;;;;5013268;28;20048;-65
2021/01/26 11:41:21;;;;;;;4.68;1.42;;;18.60;75.00;;;;;;5016442;28;20056;-65
2021/01/26 11:43:47;;;;;;;7.10;1.92;;;18.40;75.90;;;;;;4994761;28;20034;-65
2021/01/26 11:46:14;;;;;;;3.83;1.23;;;18.50;78.40;;;;;;5014121;28;20120;-65
2021/01/26 11:48:39;;;;;;;5.22;1.65;;;18.80;75.10;;;;;;5010602;28;20068;-65
2021/01/26 11:51:05;;;;;;;7.20;1.90;;;18.70;75.10;;;;;;5015729;28;20037;-67
2021/01/26 11:53:31;;;;;;;5.80;1.58;;;17.70;74.40;;;;;;5019278;28;20021;-67
2021/01/26 11:55:58;;;;;;;12.10;3.28;;;17.50;84.10;;;;;;5018037;28;20366;-65
2021/01/26 11:58:25;;;;;;;11.98;5.00;;;18.10;81.70;;;;;;5019233;28;20048;-65
2021/01/26 12:00:51;;;;;;;14.57;5.47;;;18.00;79.40;;;;;;5019139;28;20033;-65
2021/01/26 12:03:17;;;;;;;12.38;4.03;;;17.90;81.20;;;;;;5014929;28;20556;-65
2021/01/26 12:05:43;;;;;;;10.70;4.15;;;17.70;77.30;;;;;;5014698;28;20104;-65
2021/01/26 12:08:11;;;;;;;15.32;4.25;;;17.60;80.10;;;;;;5015111;28;20026;-65
2021/01/26 12:10:38;;;;;;;11.77;4.40;;;17.90;81.60;;;;;;5017475;28;20037;-65
2021/01/26 12:13:05;;;;;;;10.07;3.30;;;17.60;78.60;;;;;;5018858;28;20025;-65
2021/01/26 12:15:34;;;;;;;10.27;2.67;;;17.60;77.60;;;;;;5017881;28;20083;-65
2021/01/26 12:18:00;;;;;;;6.82;2.17;;;17.70;84.30;;;;;;5018122;28;20040;-65
2021/01/26 12:20:27;;;;;;;4.13;1.65;;;17.80;77.90;;;;;;5014054;28;20037;-65
2021/01/26 12:22:54;;;;;;;8.90;2.28;;;18.00;78.50;;;;;;5016988;28;20068;-65
2021/01/26 12:25:22;;;;;;;7.15;1.65;;;18.20;77.10;;;;;;5018231;28;20591;-65
2021/01/26 12:27:48;;;;;;;7.40;1.20;;;18.10;73.70;;;;;;5034800;28;20037;-67
2021/01/26 12:30:15;;;;;;;6.78;1.80;;;17.40;76.00;;;;;;5018240;28;20045;-67
2021/01/26 12:32:41;;;;;;;7.18;1.42;;;17.20;81.90;;;;;;5019734;28;20864;-65
2021/01/26 12:35:14;;;;;;;4.55;0.90;;;17.10;79.30;;;;;;5014718;28;20606;-65
2021/01/26 12:37:40;;;;;;;8.68;1.15;;;17.10;81.40;;;;;;5018153;28;20845;-65
2021/01/26 12:40:07;;;;;;;4.97;1.70;;;16.60;86.70;;;;;;5019470;28;20021;-65
2021/01/26 12:42:33;;;;;;;10.10;3.10;;;17.00;82.50;;;;;;5019966;28;20481;-65
2021/01/26 12:44:59;;;;;;;7.80;2.10;;;17.40;83.60;;;;;;5018151;28;20033;-65
2021/01/26 12:47:24;;;;;;;3.55;1.20;;;17.80;85.10;;;;;;5019407;28;20657;-65
2021/01/26 12:49:51;;;;;;;6.82;1.20;;;18.20;77.80;;;;;;5018001;28;20052;-65
2021/01/26 12:52:17;;;;;;;5.85;1.23;;;18.20;77.20;;;;;;5017827;28;20021;-65
2021/01/26 12:54:43;;;;;;;6.15;1.45;;;17.90;84.80;;;;;;5015801;28;20037;-65
2021/01/26 12:57:09;;;;;;;6.20;1.20;;;16.90;83.60;;;;;;5018800;28;20115;-65
2021/01/26 12:59:35;;;;;;;4.47;1.20;;;15.70;87.40;;;;;;5018297;28;20857;-65
2021/01/26 13:02:01;;;;;;;6.18;1.30;;;15.00;91.40;;;;;;5019420;28;20104;-65
2021/01/26 13:04:28;;;;;;;4.10;1.35;;;13.90;92.20;;;;;;5013111;28;20036;-65
2021/01/26 13:06:55;;;;;;;3.97;1.10;;;13.00;95.00;;;;;;5013790;28;20064;-67
2021/01/26 13:09:22;;;;;;;5.53;1.30;;;12.30;97.50;;;;;;5015363;28;20045;-67
2021/01/26 13:11:48;;;;;;;8.35;1.50;;;11.70;99.90;;;;;;5013313;28;20055;-67
2021/01/26 13:14:14;;;;;;;7.10;1.33;;;11.30;99.90;;;;;;5008137;28;20075;-67
2021/01/26 13:16:40;;;;;;;5.85;1.30;;;10.80;99.90;;;;;;5010825;28;20067;-66
2021/01/26 13:19:07;;;;;;;8.77;1.60;;;10.30;99.90;;;;;;5015726;28;20034;-66
2021/01/26 13:21:34;;;;;;;7.00;1.00;;;9.70;99.90;;;;;;5015081;28;20030;-66